WUK7863 EGGW-LEZL
Flight info
| Callsign | WUK7863 |
|---|---|
| Flight time | N/A |
| Altitude | 35000 |
| Route | RODNI N27 ICTAM Q63 CPT Y321 PEPIS Q41 SAM M195 MARUK N621 LELNA DCT NOVAN DCT DELOG DCT VADOX DCT SNR DCT TITAN DCT RATAS DCT NEA DCT NONTU DCT ORBIS DCT DISKO DCT TLD DCT DOPEN DCT MONTO DCT MOLIN DCT HIJ |
| Aircraft | A21N/M-SDE3FGHIRWY/LB1 |
Departure
| Time | N/A |
|---|---|
| Airport | London Luton Airport (EGGW) |
Arrival
| Time | 2026-04-30 21:08 |
|---|---|
| Airport | Seville Airport (LEZL) |
| Time | Latitude | Longitude | Altitude | Speed | Heading |
|---|---|---|---|---|---|
| 2026-04-30 20:48 | 39.26785 | -4.49375 | 36131 ft | 428 kts | 195° |
| 2026-04-30 20:48 | 39.21102 | -4.51709 | 36028 ft | 424 kts | 203° |
| 2026-04-30 20:49 | 39.15873 | -4.55060 | 35581 ft | 420 kts | 211° |
| 2026-04-30 20:49 | 39.11026 | -4.59137 | 34903 ft | 414 kts | 213° |
| 2026-04-30 20:49 | 39.06256 | -4.63233 | 33916 ft | 414 kts | 213° |
| 2026-04-30 20:50 | 38.96740 | -4.71319 | 31716 ft | 410 kts | 212° |
| 2026-04-30 20:50 | 38.92025 | -4.75306 | 30778 ft | 402 kts | 213° |
| 2026-04-30 20:50 | 38.87494 | -4.79134 | 29904 ft | 394 kts | 213° |
| 2026-04-30 20:50 | 38.82991 | -4.82936 | 29027 ft | 388 kts | 213° |
| 2026-04-30 20:51 | 38.78518 | -4.86707 | 28141 ft | 381 kts | 213° |
| 2026-04-30 20:51 | 38.69788 | -4.94054 | 26591 ft | 377 kts | 213° |
| 2026-04-30 20:51 | 38.65440 | -4.97706 | 25896 ft | 373 kts | 213° |
| 2026-04-30 20:52 | 38.61113 | -5.01334 | 25185 ft | 369 kts | 213° |
| 2026-04-30 20:52 | 38.56880 | -5.04876 | 24471 ft | 364 kts | 213° |
| 2026-04-30 20:52 | 38.48112 | -5.11005 | 22894 ft | 356 kts | 199° |
| 2026-04-30 20:53 | 38.43427 | -5.12869 | 21774 ft | 360 kts | 197° |
| 2026-04-30 20:53 | 38.38607 | -5.14743 | 20790 ft | 356 kts | 198° |
| 2026-04-30 20:53 | 38.33952 | -5.16563 | 19924 ft | 350 kts | 198° |
| 2026-04-30 20:54 | 38.24800 | -5.20142 | 18209 ft | 338 kts | 198° |
| 2026-04-30 20:54 | 38.20370 | -5.21878 | 17377 ft | 332 kts | 198° |
| 2026-04-30 20:54 | 38.16017 | -5.23571 | 16555 ft | 328 kts | 198° |
| 2026-04-30 20:55 | 38.07377 | -5.26930 | 14886 ft | 322 kts | 197° |
| 2026-04-30 20:55 | 38.03093 | -5.28575 | 14074 ft | 317 kts | 197° |
| 2026-04-30 20:55 | 37.98929 | -5.30183 | 13291 ft | 313 kts | 197° |
| 2026-04-30 20:56 | 37.90697 | -5.33367 | 11743 ft | 305 kts | 197° |
| 2026-04-30 20:56 | 37.86705 | -5.34909 | 11005 ft | 301 kts | 197° |
| 2026-04-30 20:56 | 37.80231 | -5.37408 | 10151 ft | 280 kts | 198° |
| 2026-04-30 20:57 | 37.78395 | -5.38116 | 10047 ft | 269 kts | 198° |
| 2026-04-30 20:57 | 37.76690 | -5.39020 | 9727 ft | 267 kts | 210° |
| 2026-04-30 20:57 | 37.75166 | -5.40388 | 9364 ft | 267 kts | 220° |
| 2026-04-30 20:58 | 37.72424 | -5.43482 | 8714 ft | 265 kts | 222° |
| 2026-04-30 20:58 | 37.71051 | -5.45047 | 8382 ft | 264 kts | 222° |
| 2026-04-30 20:58 | 37.69698 | -5.46580 | 8055 ft | 263 kts | 222° |
| 2026-04-30 20:58 | 37.68327 | -5.48121 | 7722 ft | 262 kts | 222° |
| 2026-04-30 20:59 | 37.65611 | -5.51174 | 7062 ft | 261 kts | 223° |
| 2026-04-30 20:59 | 37.64277 | -5.52684 | 6736 ft | 259 kts | 223° |
| 2026-04-30 21:00 | 37.61623 | -5.55711 | 6082 ft | 257 kts | 224° |
| 2026-04-30 21:00 | 37.58983 | -5.58715 | 5433 ft | 256 kts | 223° |
| 2026-04-30 21:01 | 37.56355 | -5.61697 | 4790 ft | 253 kts | 223° |
| 2026-04-30 21:01 | 37.55040 | -5.63167 | 4590 ft | 252 kts | 219° |
| 2026-04-30 21:01 | 37.51697 | -5.64024 | 3875 ft | 256 kts | 164° |
| 2026-04-30 21:02 | 37.50111 | -5.63077 | 3614 ft | 254 kts | 146° |
| 2026-04-30 21:02 | 37.48678 | -5.61841 | 3567 ft | 240 kts | 148° |
| 2026-04-30 21:02 | 37.47280 | -5.60848 | 3531 ft | 225 kts | 155° |
| 2026-04-30 21:02 | 37.45832 | -5.60132 | 3417 ft | 221 kts | 164° |
| 2026-04-30 21:03 | 37.44339 | -5.59882 | 3211 ft | 219 kts | 193° |
| 2026-04-30 21:03 | 37.43093 | -5.60848 | 3097 ft | 205 kts | 234° |
| 2026-04-30 21:03 | 37.42475 | -5.62361 | 2957 ft | 199 kts | 248° |
| 2026-04-30 21:03 | 37.42044 | -5.64091 | 2651 ft | 213 kts | 258° |
| 2026-04-30 21:04 | 37.41869 | -5.65930 | 2423 ft | 212 kts | 266° |
| 2026-04-30 21:04 | 37.41855 | -5.67796 | 2364 ft | 213 kts | 270° |
| 2026-04-30 21:04 | 37.41880 | -5.71220 | 2256 ft | 173 kts | 269° |
| 2026-04-30 21:05 | 37.41876 | -5.72640 | 2223 ft | 156 kts | 269° |
| 2026-04-30 21:05 | 37.41867 | -5.74003 | 2133 ft | 155 kts | 269° |
| 2026-04-30 21:05 | 37.41858 | -5.75345 | 1933 ft | 153 kts | 269° |
| 2026-04-30 21:05 | 37.41849 | -5.76687 | 1741 ft | 152 kts | 269° |
| 2026-04-30 21:06 | 37.41842 | -5.77980 | 1570 ft | 148 kts | 269° |
| 2026-04-30 21:06 | 37.41834 | -5.79281 | 1367 ft | 147 kts | 269° |
| 2026-04-30 21:06 | 37.41825 | -5.80567 | 1164 ft | 147 kts | 269° |
| 2026-04-30 21:06 | 37.41816 | -5.81829 | 965 ft | 145 kts | 269° |
| 2026-04-30 21:07 | 37.41814 | -5.83098 | 774 ft | 144 kts | 269° |
| 2026-04-30 21:07 | 37.41814 | -5.84363 | 585 ft | 143 kts | 269° |
| 2026-04-30 21:07 | 37.41808 | -5.85594 | 424 ft | 142 kts | 268° |
| 2026-04-30 21:07 | 37.41797 | -5.86841 | 236 ft | 142 kts | 269° |
| 2026-04-30 21:08 | 37.41804 | -5.88063 | 109 ft | 135 kts | 269° |
| 2026-04-30 21:08 | 37.41794 | -5.89084 | 94 ft | 91 kts | 270° |
| 2026-04-30 21:08 | 37.41791 | -5.89656 | 88 ft | 39 kts | 268° |
| 2026-04-30 21:08 | 37.41895 | -5.89830 | 88 ft | 13 kts | 337° |
| 2026-04-30 21:09 | 37.41941 | -5.89854 | 90 ft | 6 kts | 337° |
| 2026-04-30 21:09 | 37.41981 | -5.89875 | 91 ft | 6 kts | 339° |
| 2026-04-30 21:09 | 37.42024 | -5.89896 | 91 ft | 6 kts | 338° |
| 2026-04-30 21:09 | 37.42064 | -5.89916 | 92 ft | 5 kts | 338° |
| 2026-04-30 21:10 | 37.42096 | -5.89929 | 93 ft | 3 kts | 345° |
| 2026-04-30 21:10 | 37.42113 | -5.89928 | 94 ft | 1 kts | 9° |
| 2026-04-30 21:10 | 37.42124 | -5.89928 | 95 ft | 2 kts | 353° |
| 2026-04-30 21:10 | 37.42139 | -5.89934 | 95 ft | 2 kts | 333° |
| 2026-04-30 21:11 | 37.42150 | -5.89942 | 95 ft | 1 kts | 324° |
| 2026-04-30 21:11 | 37.42157 | -5.89950 | 95 ft | 1 kts | 316° |
| 2026-04-30 21:11 | 37.42164 | -5.89959 | 96 ft | 1 kts | 315° |
| 2026-04-30 21:11 | 37.42173 | -5.89969 | 96 ft | 1 kts | 316° |
| 2026-04-30 21:12 | 37.42181 | -5.89979 | 96 ft | 1 kts | 316° |
| 2026-04-30 21:12 | 37.42183 | -5.89982 | 96 ft | 0 kts | 316° |